createdAt,value
2023-03-11T00:02:05.783Z,22.32
2023-03-11T00:06:05.854Z,22.32
2023-03-11T00:10:06.028Z,22.38
2023-03-11T00:14:06.221Z,22.41
2023-03-11T00:18:06.388Z,22.38
2023-03-11T00:22:06.554Z,22.38
2023-03-11T00:26:06.735Z,22.39
2023-03-11T00:30:06.919Z,22.34
2023-03-11T00:34:07.118Z,22.23
2023-03-11T00:38:07.281Z,22.16
2023-03-11T00:42:07.457Z,22.19
2023-03-11T00:46:07.710Z,22.12
2023-03-11T00:50:07.869Z,22.07
2023-03-11T00:54:08.037Z,22.00
2023-03-11T00:58:08.254Z,22.06
2023-03-11T01:02:08.456Z,21.92
2023-03-11T01:06:08.644Z,21.88
2023-03-11T01:10:08.855Z,21.86
2023-03-11T01:14:09.042Z,21.83
2023-03-11T01:18:09.251Z,21.70
2023-03-11T01:22:09.444Z,21.77
2023-03-11T01:26:09.612Z,21.65
2023-03-11T01:30:09.819Z,21.67
2023-03-11T01:34:10.001Z,21.58
2023-03-11T01:38:10.205Z,21.65
2023-03-11T01:42:10.413Z,21.48
2023-03-11T01:46:10.637Z,21.41
2023-03-11T01:50:10.832Z,21.47
2023-03-11T01:54:11.063Z,21.36
2023-03-11T01:58:11.268Z,21.35
2023-03-11T02:02:11.524Z,21.32
2023-03-11T02:06:11.701Z,21.26
2023-03-11T02:10:11.924Z,21.28
2023-03-11T02:14:12.128Z,21.27
2023-03-11T02:18:12.363Z,21.20
2023-03-11T02:22:12.567Z,21.11
2023-03-11T02:26:12.790Z,21.03
2023-03-11T02:30:13.033Z,21.12
2023-03-11T02:34:13.216Z,20.99
2023-03-11T02:38:13.165Z,21.06
2023-03-11T02:42:13.121Z,21.00
2023-03-11T02:46:13.115Z,21.02
2023-03-11T02:50:13.094Z,21.00
2023-03-11T02:54:13.033Z,20.90
2023-03-11T02:58:12.981Z,20.99
2023-03-11T03:02:12.944Z,20.87
2023-03-11T03:06:12.927Z,20.77
2023-03-11T03:10:12.883Z,20.89
2023-03-11T03:14:12.837Z,20.75
2023-03-11T03:18:12.941Z,20.73
2023-03-11T03:22:13.133Z,20.76
2023-03-11T03:26:13.365Z,20.75
2023-03-11T03:30:13.337Z,20.70
2023-03-11T03:34:13.299Z,20.70
2023-03-11T03:38:13.254Z,20.67
2023-03-11T03:42:13.230Z,20.65
2023-03-11T03:46:13.232Z,20.51
2023-03-11T03:50:13.152Z,20.53
2023-03-11T03:54:13.131Z,20.58
2023-03-11T03:58:13.092Z,20.48
2023-03-11T04:02:13.082Z,20.45
2023-03-11T04:06:13.103Z,20.44
2023-03-11T04:10:13.070Z,20.46
2023-03-11T04:14:13.032Z,20.39
2023-03-11T04:18:12.989Z,20.30
2023-03-11T04:22:12.976Z,20.28
2023-03-11T04:26:12.934Z,20.22
2023-03-11T04:30:12.911Z,20.21
2023-03-11T04:34:12.840Z,20.21
2023-03-11T04:38:12.803Z,20.24
2023-03-11T04:42:12.777Z,20.17
2023-03-11T04:46:13.003Z,20.23
2023-03-11T04:50:12.880Z,20.29
2023-03-11T04:54:12.834Z,20.27
2023-03-11T04:58:12.827Z,20.35
2023-03-11T05:02:13.028Z,20.29
2023-03-11T05:06:12.742Z,20.32
2023-03-11T05:10:12.729Z,20.32
2023-03-11T05:14:12.685Z,20.33
2023-03-11T05:18:12.680Z,20.35
2023-03-11T05:22:12.601Z,20.27
2023-03-11T05:26:12.589Z,20.24
2023-03-11T05:30:12.559Z,20.27
2023-03-11T05:34:12.613Z,20.23
2023-03-11T05:38:12.547Z,20.29
2023-03-11T05:42:12.544Z,20.31
2023-03-11T05:46:12.552Z,20.29
2023-03-11T05:50:12.485Z,20.24
2023-03-11T05:54:12.427Z,20.25
2023-03-11T05:58:12.406Z,20.19
2023-03-11T06:02:12.333Z,20.22
2023-03-11T06:06:12.320Z,20.14
2023-03-11T06:10:12.279Z,20.12
2023-03-11T06:14:12.292Z,20.13
2023-03-11T06:18:12.267Z,20.23
2023-03-11T06:22:12.201Z,20.13
2023-03-11T06:26:12.182Z,20.07
2023-03-11T06:30:12.139Z,20.14
2023-03-11T06:34:12.115Z,20.09
2023-03-11T06:38:12.095Z,20.17
2023-03-11T06:42:12.042Z,20.14
2023-03-11T06:46:12.079Z,20.12
2023-03-11T06:50:11.981Z,20.16
2023-03-11T06:54:11.955Z,20.20
2023-03-11T06:58:11.892Z,20.13
2023-03-11T07:02:11.859Z,20.10
2023-03-11T07:06:11.843Z,20.19
2023-03-11T07:10:11.816Z,20.17
2023-03-11T07:14:11.773Z,20.12
2023-03-11T07:18:11.746Z,20.13
2023-03-11T07:22:11.691Z,20.14
2023-03-11T07:26:11.655Z,20.14
2023-03-11T07:30:11.637Z,20.11
2023-03-11T07:34:11.689Z,20.15
2023-03-11T07:38:11.694Z,20.15
2023-03-11T07:42:11.948Z,20.16
2023-03-11T07:46:12.226Z,20.14
2023-03-11T07:50:12.327Z,20.11
2023-03-11T07:54:12.527Z,20.08
2023-03-11T07:58:12.746Z,20.04
2023-03-11T08:02:13.018Z,20.10
2023-03-11T08:06:13.143Z,20.07
2023-03-11T08:10:13.367Z,20.11
2023-03-11T08:14:13.556Z,20.14
2023-03-11T08:18:13.758Z,20.12
2023-03-11T08:22:13.973Z,20.19
2023-03-11T08:26:13.938Z,20.09
2023-03-11T08:30:13.912Z,20.07
2023-03-11T08:34:13.880Z,20.04
2023-03-11T08:38:13.825Z,20.13
2023-03-11T08:42:13.797Z,20.11
2023-03-11T08:46:13.783Z,20.12
2023-03-11T08:50:13.712Z,20.09
2023-03-11T08:54:13.693Z,20.14
2023-03-11T08:58:13.673Z,20.21
2023-03-11T09:02:13.595Z,20.24
2023-03-11T09:06:13.705Z,20.25
2023-03-11T09:10:13.885Z,20.23
2023-03-11T09:14:14.074Z,20.20
2023-03-11T09:18:14.274Z,20.13
2023-03-11T09:22:14.494Z,20.23
2023-03-11T09:26:14.703Z,20.22
2023-03-11T09:30:14.931Z,20.21
2023-03-11T09:34:16.221Z,20.20
2023-03-11T09:38:15.331Z,20.20
2023-03-11T09:42:15.536Z,20.21
2023-03-11T09:46:15.796Z,20.20
2023-03-11T09:50:15.969Z,20.18
2023-03-11T09:54:16.165Z,20.18
2023-03-11T09:58:16.377Z,20.17
2023-03-11T10:02:16.728Z,20.14
2023-03-11T10:06:16.768Z,20.16
2023-03-11T10:10:16.960Z,20.14
2023-03-11T10:14:17.142Z,20.12
2023-03-11T10:18:17.319Z,20.13
2023-03-11T10:22:17.488Z,20.14
2023-03-11T10:26:17.657Z,20.14
2023-03-11T10:30:17.840Z,20.14
2023-03-11T10:34:18.005Z,20.16
2023-03-11T10:38:18.123Z,20.16
2023-03-11T10:42:18.410Z,20.16
2023-03-11T10:46:18.631Z,20.18
2023-03-11T10:50:18.612Z,20.22
2023-03-11T10:54:18.750Z,20.23
2023-03-11T10:58:18.894Z,20.28
2023-03-11T11:02:19.009Z,20.26
2023-03-11T11:06:19.179Z,20.29
2023-03-11T11:10:19.503Z,20.30
2023-03-11T11:14:19.462Z,20.31
2023-03-11T11:18:19.648Z,20.31
2023-03-11T11:22:19.776Z,20.34
2023-03-11T11:26:19.926Z,20.31
2023-03-11T11:30:20.049Z,20.31
2023-03-11T11:34:21.842Z,20.33
2023-03-11T11:38:20.126Z,20.34
2023-03-11T11:42:20.093Z,20.33
2023-03-11T11:46:20.125Z,20.37
2023-03-11T11:50:19.993Z,20.35
2023-03-11T11:54:19.954Z,20.37
2023-03-11T11:58:19.922Z,20.35
2023-03-11T12:02:19.903Z,20.36
2023-03-11T12:06:19.839Z,20.36
2023-03-11T12:10:23.658Z,20.38
2023-03-11T12:14:19.775Z,20.34
2023-03-11T12:18:19.765Z,20.34
2023-03-11T12:22:19.721Z,20.34
2023-03-11T12:26:19.670Z,20.34
2023-03-11T12:30:19.617Z,20.35
2023-03-11T12:34:19.595Z,20.37
2023-03-11T12:38:19.566Z,20.37
2023-03-11T12:42:19.725Z,20.39
2023-03-11T12:46:19.917Z,20.38
2023-03-11T12:50:20.030Z,20.41
2023-03-11T12:54:20.134Z,20.42
2023-03-11T12:58:21.349Z,20.43
2023-03-11T13:02:20.441Z,20.43
2023-03-11T13:06:20.569Z,20.45
2023-03-11T13:10:20.691Z,20.43
2023-03-11T13:14:20.857Z,20.44
2023-03-11T13:18:20.988Z,20.45
2023-03-11T13:22:21.132Z,20.45
2023-03-11T13:26:21.304Z,20.49
2023-03-11T13:30:21.450Z,20.48
2023-03-11T13:34:21.585Z,20.48
2023-03-11T13:38:21.774Z,20.50
2023-03-11T13:42:21.883Z,20.48
2023-03-11T13:46:22.005Z,20.47
2023-03-11T13:50:22.171Z,20.49
2023-03-11T13:54:23.163Z,20.52
2023-03-11T13:58:22.471Z,20.52
2023-03-11T14:02:22.640Z,20.51
2023-03-11T14:06:22.789Z,20.40
2023-03-11T14:10:22.941Z,20.42
2023-03-11T14:14:23.109Z,20.50
2023-03-11T14:18:23.274Z,20.50
2023-03-11T14:22:23.460Z,20.48
2023-03-11T14:26:23.640Z,20.51
2023-03-11T14:30:23.815Z,20.50
2023-03-11T14:34:23.986Z,20.48
2023-03-11T14:38:24.139Z,20.49
2023-03-11T14:42:24.313Z,20.48
2023-03-11T14:46:24.626Z,20.49
2023-03-11T14:50:24.662Z,20.47
2023-03-11T14:54:24.877Z,20.48
2023-03-11T14:58:25.031Z,20.47
2023-03-11T15:02:25.241Z,20.48
2023-03-11T15:06:25.447Z,20.48
2023-03-11T15:10:25.611Z,20.47
2023-03-11T15:14:25.804Z,20.46
2023-03-11T15:18:25.967Z,20.45
2023-03-11T15:22:26.150Z,20.46
2023-03-11T15:26:26.338Z,20.37
2023-03-11T15:30:26.529Z,20.37
2023-03-11T15:34:26.717Z,20.34
2023-03-11T15:38:26.893Z,20.29
2023-03-11T15:42:27.108Z,20.37
2023-03-11T15:46:27.335Z,20.44
2023-03-11T15:50:40.097Z,20.40
2023-03-11T15:54:28.446Z,20.38
2023-03-11T15:58:27.401Z,20.33
2023-03-11T16:02:27.514Z,20.39
2023-03-11T16:06:27.704Z,20.38
2023-03-11T16:10:27.916Z,20.36
2023-03-11T16:14:28.096Z,20.30
2023-03-11T16:18:28.294Z,20.28
2023-03-11T16:22:28.509Z,20.19
2023-03-11T16:26:28.734Z,20.28
2023-03-11T16:30:28.931Z,20.22
2023-03-11T16:34:29.134Z,20.19
2023-03-11T16:38:29.337Z,20.20
2023-03-11T16:42:29.558Z,20.22
2023-03-11T16:46:29.825Z,20.14
2023-03-11T16:50:30.033Z,20.16
2023-03-11T16:54:29.947Z,20.10
2023-03-11T16:58:29.921Z,20.02
2023-03-11T17:02:29.869Z,19.99
2023-03-11T17:06:29.819Z,19.96
2023-03-11T17:10:29.903Z,20.07
2023-03-11T17:14:29.763Z,20.01
2023-03-11T17:18:29.737Z,19.94
2023-03-11T17:22:29.674Z,19.93
2023-03-11T17:26:29.670Z,20.02
2023-03-11T17:30:36.885Z,20.02
2023-03-11T17:34:30.581Z,19.94
2023-03-11T17:38:29.583Z,19.95
2023-03-11T17:42:29.534Z,19.92
2023-03-11T17:46:29.497Z,19.94
2023-03-11T17:50:29.445Z,19.95
2023-03-11T17:54:29.404Z,19.84
2023-03-11T17:58:29.373Z,19.88
2023-03-11T18:02:29.344Z,19.85
2023-03-11T18:06:29.298Z,19.90
2023-03-11T18:10:29.271Z,19.84
2023-03-11T18:14:29.212Z,19.89
2023-03-11T18:18:29.383Z,19.88
2023-03-11T18:22:29.359Z,19.96
2023-03-11T18:26:29.320Z,20.04
2023-03-11T18:30:29.265Z,20.11
2023-03-11T18:34:29.239Z,20.17
2023-03-11T18:38:29.192Z,20.25
2023-03-11T18:42:29.173Z,20.34
2023-03-11T18:46:29.113Z,20.40
2023-03-11T18:50:29.084Z,20.48
2023-03-11T18:54:29.041Z,20.57
2023-03-11T18:58:29.225Z,20.63
2023-03-11T19:02:29.209Z,20.67
2023-03-11T19:06:29.163Z,20.75
2023-03-11T19:10:29.124Z,20.85
2023-03-11T19:14:29.081Z,20.87
2023-03-11T19:18:29.049Z,20.93
2023-03-11T19:22:29.030Z,20.96
2023-03-11T19:26:43.688Z,21.00
2023-03-11T19:30:29.998Z,21.06
2023-03-11T19:34:28.981Z,21.07
2023-03-11T19:38:28.964Z,21.13
2023-03-11T19:42:28.906Z,21.13
2023-03-11T19:46:28.919Z,21.18
2023-03-11T19:50:28.851Z,21.19
2023-03-11T19:54:28.824Z,21.23
2023-03-11T19:58:30.396Z,21.26
2023-03-11T20:02:28.767Z,21.31
2023-03-11T20:06:28.806Z,21.30
2023-03-11T20:10:28.777Z,21.32
2023-03-11T20:14:28.689Z,21.37
2023-03-11T20:18:28.664Z,21.38
2023-03-11T20:22:28.585Z,21.41
2023-03-11T20:26:28.568Z,21.43
2023-03-11T20:30:28.619Z,21.47
2023-03-11T20:34:28.508Z,21.48
2023-03-11T20:38:28.444Z,21.49
2023-03-11T20:42:28.545Z,21.52
2023-03-11T20:46:28.462Z,21.54
2023-03-11T20:50:28.378Z,21.54
2023-03-11T20:54:28.328Z,21.58
2023-03-11T20:58:28.293Z,21.61
2023-03-11T21:02:28.338Z,21.61
2023-03-11T21:06:28.266Z,21.64
2023-03-11T21:10:28.252Z,21.65
2023-03-11T21:14:28.192Z,21.67
2023-03-11T21:18:28.117Z,21.69
2023-03-11T21:22:28.277Z,21.69
2023-03-11T21:26:28.199Z,21.70
2023-03-11T21:30:28.240Z,21.74
2023-03-11T21:34:28.258Z,21.73
2023-03-11T21:38:28.285Z,21.76
2023-03-11T21:42:28.044Z,21.78
2023-03-11T21:46:28.152Z,21.79
2023-03-11T21:50:27.985Z,21.78
2023-03-11T21:54:28.056Z,21.78
2023-03-11T21:58:28.073Z,21.81
2023-03-11T22:02:28.293Z,21.81
2023-03-11T22:06:28.424Z,21.83
2023-03-11T22:10:28.589Z,21.83
2023-03-11T22:14:28.857Z,21.84
2023-03-11T22:18:28.934Z,21.85
2023-03-11T22:22:29.077Z,21.86
2023-03-11T22:26:29.245Z,21.87
2023-03-11T22:30:29.357Z,21.86
2023-03-11T22:34:29.512Z,21.86
2023-03-11T22:38:29.698Z,21.88
2023-03-11T22:42:29.864Z,21.86
2023-03-11T22:46:30.147Z,21.88
2023-03-11T22:50:30.239Z,21.88
2023-03-11T22:54:30.435Z,21.89
2023-03-11T22:58:30.564Z,21.90
2023-03-11T23:02:30.749Z,21.91
2023-03-11T23:06:30.852Z,21.92
2023-03-11T23:10:31.035Z,21.90
2023-03-11T23:14:44.099Z,21.90
2023-03-11T23:18:32.154Z,21.92
2023-03-11T23:22:31.127Z,21.94
2023-03-11T23:26:31.301Z,21.95
2023-03-11T23:30:31.705Z,21.95
2023-03-11T23:34:31.657Z,21.95
2023-03-11T23:38:31.847Z,21.94
2023-03-11T23:42:32.002Z,21.95
2023-03-11T23:46:32.171Z,21.96
2023-03-11T23:50:32.294Z,21.94
2023-03-11T23:54:32.457Z,21.97
2023-03-11T23:58:32.611Z,21.95
